sensor_id;sensor_type;location;lat;lon;timestamp;temperature;humidity
11944;DHT22;6031;50.220;10.122;2022-10-31T00:00:52;10.30;99.90
11944;DHT22;6031;50.220;10.122;2022-10-31T00:03:18;10.40;99.90
11944;DHT22;6031;50.220;10.122;2022-10-31T00:05:45;10.30;99.90
11944;DHT22;6031;50.220;10.122;2022-10-31T00:08:11;10.30;99.90
11944;DHT22;6031;50.220;10.122;2022-10-31T00:10:44;10.30;99.90
11944;DHT22;6031;50.220;10.122;2022-10-31T00:13:11;10.30;99.90
11944;DHT22;6031;50.220;10.122;2022-10-31T00:15:38;10.30;99.90
11944;DHT22;6031;50.220;10.122;2022-10-31T00:18:05;10.30;99.90
11944;DHT22;6031;50.220;10.122;2022-10-31T00:20:31;10.30;99.90
11944;DHT22;6031;50.220;10.122;2022-10-31T00:23:01;10.40;99.90
11944;DHT22;6031;50.220;10.122;2022-10-31T00:25:28;10.40;99.90
11944;DHT22;6031;50.220;10.122;2022-10-31T00:27:54;10.30;99.90
11944;DHT22;6031;50.220;10.122;2022-10-31T00:30:20;10.30;99.90
11944;DHT22;6031;50.220;10.122;2022-10-31T00:32:45;10.20;99.90
11944;DHT22;6031;50.220;10.122;2022-10-31T00:35:11;10.20;99.90
11944;DHT22;6031;50.220;10.122;2022-10-31T00:37:36;10.20;99.90
11944;DHT22;6031;50.220;10.122;2022-10-31T00:40:02;10.30;99.90
11944;DHT22;6031;50.220;10.122;2022-10-31T00:42:28;10.30;99.90
11944;DHT22;6031;50.220;10.122;2022-10-31T00:44:53;10.20;99.90
11944;DHT22;6031;50.220;10.122;2022-10-31T00:47:19;10.20;99.90
11944;DHT22;6031;50.220;10.122;2022-10-31T00:49:44;10.10;99.90
11944;DHT22;6031;50.220;10.122;2022-10-31T00:52:10;10.00;99.90
11944;DHT22;6031;50.220;10.122;2022-10-31T00:54:35;10.10;99.90
11944;DHT22;6031;50.220;10.122;2022-10-31T00:57:01;10.00;99.90
11944;DHT22;6031;50.220;10.122;2022-10-31T00:59:26;10.00;99.90
11944;DHT22;6031;50.220;10.122;2022-10-31T01:01:52;10.00;99.90
11944;DHT22;6031;50.220;10.122;2022-10-31T01:04:17;10.00;99.90
11944;DHT22;6031;50.220;10.122;2022-10-31T01:06:43;10.00;99.90
11944;DHT22;6031;50.220;10.122;2022-10-31T01:09:08;10.00;99.90
11944;DHT22;6031;50.220;10.122;2022-10-31T01:11:34;10.10;99.90
11944;DHT22;6031;50.220;10.122;2022-10-31T01:13:59;10.10;99.90
11944;DHT22;6031;50.220;10.122;2022-10-31T01:16:26;10.10;99.90
11944;DHT22;6031;50.220;10.122;2022-10-31T01:18:52;10.00;99.90
11944;DHT22;6031;50.220;10.122;2022-10-31T01:21:23;9.90;99.90
11944;DHT22;6031;50.220;10.122;2022-10-31T01:23:50;10.00;99.90
11944;DHT22;6031;50.220;10.122;2022-10-31T01:26:21;10.00;99.90
11944;DHT22;6031;50.220;10.122;2022-10-31T01:28:50;10.00;99.90
11944;DHT22;6031;50.220;10.122;2022-10-31T01:31:17;9.90;99.90
11944;DHT22;6031;50.220;10.122;2022-10-31T01:33:43;9.90;99.90
11944;DHT22;6031;50.220;10.122;2022-10-31T01:36:25;9.90;99.90
11944;DHT22;6031;50.220;10.122;2022-10-31T01:38:52;9.90;99.90
11944;DHT22;6031;50.220;10.122;2022-10-31T01:41:22;10.00;99.90
11944;DHT22;6031;50.220;10.122;2022-10-31T01:43:53;10.00;99.90
11944;DHT22;6031;50.220;10.122;2022-10-31T01:46:25;10.00;99.90
11944;DHT22;6031;50.220;10.122;2022-10-31T01:48:54;10.00;99.90
11944;DHT22;6031;50.220;10.122;2022-10-31T01:51:25;10.00;99.90
11944;DHT22;6031;50.220;10.122;2022-10-31T01:53:53;10.00;99.90
11944;DHT22;6031;50.220;10.122;2022-10-31T01:56:20;10.00;99.90
11944;DHT22;6031;50.220;10.122;2022-10-31T01:58:47;9.90;99.90
11944;DHT22;6031;50.220;10.122;2022-10-31T02:01:14;9.90;99.90
11944;DHT22;6031;50.220;10.122;2022-10-31T02:03:41;9.90;99.90
11944;DHT22;6031;50.220;10.122;2022-10-31T02:06:11;9.90;99.90
11944;DHT22;6031;50.220;10.122;2022-10-31T02:08:41;9.90;99.90
11944;DHT22;6031;50.220;10.122;2022-10-31T02:11:08;10.00;99.90
11944;DHT22;6031;50.220;10.122;2022-10-31T02:13:34;9.90;99.90
11944;DHT22;6031;50.220;10.122;2022-10-31T02:16:00;10.00;99.90
11944;DHT22;6031;50.220;10.122;2022-10-31T02:18:28;10.00;99.90
11944;DHT22;6031;50.220;10.122;2022-10-31T02:34:59;10.00;99.90
11944;DHT22;6031;50.220;10.122;2022-10-31T02:37:37;9.90;99.90
11944;DHT22;6031;50.220;10.122;2022-10-31T02:40:31;9.90;99.90
11944;DHT22;6031;50.220;10.122;2022-10-31T02:48:39;9.80;99.90
11944;DHT22;6031;50.220;10.122;2022-10-31T02:51:08;9.80;99.90
11944;DHT22;6031;50.220;10.122;2022-10-31T02:53:36;9.70;99.90
11944;DHT22;6031;50.220;10.122;2022-10-31T02:56:11;9.80;99.90
11944;DHT22;6031;50.220;10.122;2022-10-31T02:58:42;9.70;99.90
11944;DHT22;6031;50.220;10.122;2022-10-31T03:02:09;9.70;99.90
11944;DHT22;6031;50.220;10.122;2022-10-31T03:09:42;9.80;99.90
11944;DHT22;6031;50.220;10.122;2022-10-31T03:14:56;9.80;99.90
11944;DHT22;6031;50.220;10.122;2022-10-31T03:17:31;9.70;99.90
11944;DHT22;6031;50.220;10.122;2022-10-31T03:20:00;9.80;99.90
11944;DHT22;6031;50.220;10.122;2022-10-31T03:22:29;9.80;99.90
11944;DHT22;6031;50.220;10.122;2022-10-31T03:24:58;9.80;99.90
11944;DHT22;6031;50.220;10.122;2022-10-31T03:27:27;9.80;99.90
11944;DHT22;6031;50.220;10.122;2022-10-31T03:29:57;9.80;99.90
11944;DHT22;6031;50.220;10.122;2022-10-31T03:32:29;9.80;99.90
11944;DHT22;6031;50.220;10.122;2022-10-31T03:34:59;9.70;99.90
11944;DHT22;6031;50.220;10.122;2022-10-31T03:37:27;9.80;99.90
11944;DHT22;6031;50.220;10.122;2022-10-31T03:39:57;9.80;99.90
11944;DHT22;6031;50.220;10.122;2022-10-31T03:42:25;9.80;99.90
11944;DHT22;6031;50.220;10.122;2022-10-31T03:45:10;9.80;99.90
11944;DHT22;6031;50.220;10.122;2022-10-31T03:47:38;9.80;99.90
11944;DHT22;6031;50.220;10.122;2022-10-31T03:50:06;9.70;99.90
11944;DHT22;6031;50.220;10.122;2022-10-31T03:52:43;9.70;99.90
11944;DHT22;6031;50.220;10.122;2022-10-31T03:55:19;9.80;99.90
11944;DHT22;6031;50.220;10.122;2022-10-31T03:58:04;9.80;99.90
11944;DHT22;6031;50.220;10.122;2022-10-31T04:00:33;9.80;99.90
11944;DHT22;6031;50.220;10.122;2022-10-31T04:03:04;9.80;99.90
11944;DHT22;6031;50.220;10.122;2022-10-31T04:05:31;9.70;99.90
11944;DHT22;6031;50.220;10.122;2022-10-31T04:07:58;9.70;99.90
11944;DHT22;6031;50.220;10.122;2022-10-31T04:10:26;9.60;99.90
11944;DHT22;6031;50.220;10.122;2022-10-31T04:13:00;9.60;99.90
11944;DHT22;6031;50.220;10.122;2022-10-31T04:15:27;9.70;99.90
11944;DHT22;6031;50.220;10.122;2022-10-31T04:17:55;9.70;99.90
11944;DHT22;6031;50.220;10.122;2022-10-31T04:20:36;9.70;99.90
11944;DHT22;6031;50.220;10.122;2022-10-31T04:23:03;9.80;99.90
11944;DHT22;6031;50.220;10.122;2022-10-31T04:25:29;9.70;99.90
11944;DHT22;6031;50.220;10.122;2022-10-31T04:27:54;9.70;99.90
11944;DHT22;6031;50.220;10.122;2022-10-31T04:30:20;9.70;99.90
11944;DHT22;6031;50.220;10.122;2022-10-31T04:32:46;9.70;99.90
11944;DHT22;6031;50.220;10.122;2022-10-31T04:35:12;9.60;99.90
11944;DHT22;6031;50.220;10.122;2022-10-31T04:37:38;9.60;99.90
11944;DHT22;6031;50.220;10.122;2022-10-31T04:40:04;9.60;99.90
11944;DHT22;6031;50.220;10.122;2022-10-31T04:42:30;9.70;99.90
11944;DHT22;6031;50.220;10.122;2022-10-31T04:44:55;9.70;99.90
11944;DHT22;6031;50.220;10.122;2022-10-31T04:47:21;9.70;99.90
11944;DHT22;6031;50.220;10.122;2022-10-31T04:49:47;9.70;99.90
11944;DHT22;6031;50.220;10.122;2022-10-31T04:52:13;9.70;99.90
11944;DHT22;6031;50.220;10.122;2022-10-31T04:54:38;9.60;99.90
11944;DHT22;6031;50.220;10.122;2022-10-31T04:57:04;9.60;99.90
11944;DHT22;6031;50.220;10.122;2022-10-31T04:59:29;9.50;99.90
11944;DHT22;6031;50.220;10.122;2022-10-31T05:01:55;9.50;99.90
11944;DHT22;6031;50.220;10.122;2022-10-31T05:04:21;9.50;99.90
11944;DHT22;6031;50.220;10.122;2022-10-31T05:06:46;9.50;99.90
11944;DHT22;6031;50.220;10.122;2022-10-31T05:09:12;9.50;99.90
11944;DHT22;6031;50.220;10.122;2022-10-31T05:11:37;9.50;99.90
11944;DHT22;6031;50.220;10.122;2022-10-31T05:14:03;9.40;99.90
11944;DHT22;6031;50.220;10.122;2022-10-31T05:16:28;9.40;99.90
11944;DHT22;6031;50.220;10.122;2022-10-31T05:18:54;9.40;99.90
11944;DHT22;6031;50.220;10.122;2022-10-31T05:21:19;9.30;99.90
11944;DHT22;6031;50.220;10.122;2022-10-31T05:23:45;9.30;99.90
11944;DHT22;6031;50.220;10.122;2022-10-31T05:26:10;9.30;99.90
11944;DHT22;6031;50.220;10.122;2022-10-31T05:28:36;9.30;99.90
11944;DHT22;6031;50.220;10.122;2022-10-31T05:31:01;9.30;99.90
11944;DHT22;6031;50.220;10.122;2022-10-31T05:33:27;9.20;99.90
11944;DHT22;6031;50.220;10.122;2022-10-31T05:35:53;9.30;99.90
11944;DHT22;6031;50.220;10.122;2022-10-31T05:38:18;9.30;99.90
11944;DHT22;6031;50.220;10.122;2022-10-31T05:40:44;9.30;99.90
11944;DHT22;6031;50.220;10.122;2022-10-31T05:43:09;9.30;99.90
11944;DHT22;6031;50.220;10.122;2022-10-31T05:45:35;9.30;99.90
11944;DHT22;6031;50.220;10.122;2022-10-31T05:48:01;9.40;99.90
11944;DHT22;6031;50.220;10.122;2022-10-31T05:50:29;9.30;99.90
11944;DHT22;6031;50.220;10.122;2022-10-31T05:53:05;9.30;99.90
11944;DHT22;6031;50.220;10.122;2022-10-31T05:55:31;9.40;99.90
11944;DHT22;6031;50.220;10.122;2022-10-31T05:57:57;9.40;99.90
11944;DHT22;6031;50.220;10.122;2022-10-31T06:00:24;9.40;99.90
11944;DHT22;6031;50.220;10.122;2022-10-31T06:02:58;9.30;99.90
11944;DHT22;6031;50.220;10.122;2022-10-31T06:05:24;9.40;99.90
11944;DHT22;6031;50.220;10.122;2022-10-31T06:07:49;9.50;99.90
11944;DHT22;6031;50.220;10.122;2022-10-31T06:10:15;9.40;99.90
11944;DHT22;6031;50.220;10.122;2022-10-31T06:12:41;9.40;99.90
11944;DHT22;6031;50.220;10.122;2022-10-31T06:15:07;9.50;99.90
11944;DHT22;6031;50.220;10.122;2022-10-31T06:17:34;9.50;99.90
11944;DHT22;6031;50.220;10.122;2022-10-31T06:20:00;9.50;99.90
11944;DHT22;6031;50.220;10.122;2022-10-31T06:22:26;9.50;99.90
11944;DHT22;6031;50.220;10.122;2022-10-31T06:24:51;9.50;99.90
11944;DHT22;6031;50.220;10.122;2022-10-31T06:27:17;9.40;99.90
11944;DHT22;6031;50.220;10.122;2022-10-31T06:29:42;9.50;99.90
11944;DHT22;6031;50.220;10.122;2022-10-31T06:32:11;9.50;99.90
11944;DHT22;6031;50.220;10.122;2022-10-31T06:34:38;9.50;99.90
11944;DHT22;6031;50.220;10.122;2022-10-31T06:37:05;9.50;99.90
11944;DHT22;6031;50.220;10.122;2022-10-31T06:39:30;9.50;99.90
11944;DHT22;6031;50.220;10.122;2022-10-31T06:41:56;9.60;99.90
11944;DHT22;6031;50.220;10.122;2022-10-31T06:44:21;9.70;99.90
11944;DHT22;6031;50.220;10.122;2022-10-31T06:46:47;9.70;99.90
11944;DHT22;6031;50.220;10.122;2022-10-31T06:49:13;9.70;99.90
11944;DHT22;6031;50.220;10.122;2022-10-31T06:51:38;9.70;99.90
11944;DHT22;6031;50.220;10.122;2022-10-31T06:54:04;9.80;99.90
11944;DHT22;6031;50.220;10.122;2022-10-31T06:56:29;9.80;99.90
11944;DHT22;6031;50.220;10.122;2022-10-31T06:58:55;9.90;99.90
11944;DHT22;6031;50.220;10.122;2022-10-31T07:01:20;9.90;99.90
11944;DHT22;6031;50.220;10.122;2022-10-31T07:03:46;9.90;99.90
11944;DHT22;6031;50.220;10.122;2022-10-31T07:06:11;9.90;99.90
11944;DHT22;6031;50.220;10.122;2022-10-31T07:08:37;9.80;99.90
11944;DHT22;6031;50.220;10.122;2022-10-31T07:11:02;9.80;99.90
11944;DHT22;6031;50.220;10.122;2022-10-31T07:13:28;9.80;99.90
11944;DHT22;6031;50.220;10.122;2022-10-31T07:15:55;9.70;99.90
11944;DHT22;6031;50.220;10.122;2022-10-31T07:18:21;9.80;99.90
11944;DHT22;6031;50.220;10.122;2022-10-31T07:20:47;9.90;99.90
11944;DHT22;6031;50.220;10.122;2022-10-31T07:23:16;9.90;99.90
11944;DHT22;6031;50.220;10.122;2022-10-31T07:25:41;10.00;99.90
11944;DHT22;6031;50.220;10.122;2022-10-31T07:28:07;10.10;99.90
11944;DHT22;6031;50.220;10.122;2022-10-31T07:30:33;10.20;99.90
11944;DHT22;6031;50.220;10.122;2022-10-31T07:32:58;10.30;99.90
11944;DHT22;6031;50.220;10.122;2022-10-31T07:35:26;10.30;99.90
11944;DHT22;6031;50.220;10.122;2022-10-31T07:37:52;10.40;99.90
11944;DHT22;6031;50.220;10.122;2022-10-31T07:40:18;10.40;99.90
11944;DHT22;6031;50.220;10.122;2022-10-31T07:42:46;10.40;99.90
11944;DHT22;6031;50.220;10.122;2022-10-31T07:45:13;10.40;99.90
11944;DHT22;6031;50.220;10.122;2022-10-31T07:47:40;10.50;99.90
11944;DHT22;6031;50.220;10.122;2022-10-31T07:50:07;10.60;99.90
11944;DHT22;6031;50.220;10.122;2022-10-31T07:52:33;10.60;99.90
11944;DHT22;6031;50.220;10.122;2022-10-31T07:54:58;10.60;99.90
11944;DHT22;6031;50.220;10.122;2022-10-31T07:57:24;10.60;99.90
11944;DHT22;6031;50.220;10.122;2022-10-31T07:59:49;10.70;99.90
11944;DHT22;6031;50.220;10.122;2022-10-31T08:02:15;10.80;99.90
11944;DHT22;6031;50.220;10.122;2022-10-31T08:04:41;10.80;99.90
11944;DHT22;6031;50.220;10.122;2022-10-31T08:07:07;10.90;99.90
11944;DHT22;6031;50.220;10.122;2022-10-31T08:09:32;11.00;99.90
11944;DHT22;6031;50.220;10.122;2022-10-31T08:11:58;11.10;99.90
11944;DHT22;6031;50.220;10.122;2022-10-31T08:14:23;11.20;99.90
11944;DHT22;6031;50.220;10.122;2022-10-31T08:16:49;11.10;99.90
11944;DHT22;6031;50.220;10.122;2022-10-31T08:19:14;11.20;99.90
11944;DHT22;6031;50.220;10.122;2022-10-31T08:21:40;11.30;99.90
11944;DHT22;6031;50.220;10.122;2022-10-31T08:24:06;11.40;99.90
11944;DHT22;6031;50.220;10.122;2022-10-31T08:26:31;11.50;99.90
11944;DHT22;6031;50.220;10.122;2022-10-31T08:28:57;11.40;99.90
11944;DHT22;6031;50.220;10.122;2022-10-31T08:31:23;11.40;99.90
11944;DHT22;6031;50.220;10.122;2022-10-31T08:33:52;11.40;99.90
11944;DHT22;6031;50.220;10.122;2022-10-31T08:36:17;11.60;99.90
11944;DHT22;6031;50.220;10.122;2022-10-31T08:38:43;11.80;99.90
11944;DHT22;6031;50.220;10.122;2022-10-31T08:41:09;11.90;99.90
11944;DHT22;6031;50.220;10.122;2022-10-31T08:43:34;12.00;99.90
11944;DHT22;6031;50.220;10.122;2022-10-31T08:46:00;12.10;99.90
11944;DHT22;6031;50.220;10.122;2022-10-31T08:48:25;12.20;99.90
11944;DHT22;6031;50.220;10.122;2022-10-31T08:50:51;12.30;99.90
11944;DHT22;6031;50.220;10.122;2022-10-31T08:53:18;12.40;99.90
11944;DHT22;6031;50.220;10.122;2022-10-31T08:55:45;12.60;99.90
11944;DHT22;6031;50.220;10.122;2022-10-31T08:58:13;12.70;99.90
11944;DHT22;6031;50.220;10.122;2022-10-31T09:00:39;12.70;99.90
11944;DHT22;6031;50.220;10.122;2022-10-31T09:03:08;12.70;99.90
11944;DHT22;6031;50.220;10.122;2022-10-31T09:05:35;12.80;99.90
11944;DHT22;6031;50.220;10.122;2022-10-31T09:08:03;12.70;99.90
11944;DHT22;6031;50.220;10.122;2022-10-31T09:10:30;12.70;99.90
11944;DHT22;6031;50.220;10.122;2022-10-31T09:13:16;12.80;99.90
11944;DHT22;6031;50.220;10.122;2022-10-31T09:15:44;12.70;99.90
11944;DHT22;6031;50.220;10.122;2022-10-31T09:18:10;12.80;99.90
11944;DHT22;6031;50.220;10.122;2022-10-31T09:20:37;12.90;99.90
11944;DHT22;6031;50.220;10.122;2022-10-31T09:23:10;13.10;99.90
11944;DHT22;6031;50.220;10.122;2022-10-31T09:25:35;13.10;99.90
11944;DHT22;6031;50.220;10.122;2022-10-31T09:28:03;13.40;99.90
11944;DHT22;6031;50.220;10.122;2022-10-31T09:30:30;13.80;99.90
11944;DHT22;6031;50.220;10.122;2022-10-31T09:33:00;14.50;99.90
11944;DHT22;6031;50.220;10.122;2022-10-31T09:35:26;15.50;99.90
11944;DHT22;6031;50.220;10.122;2022-10-31T09:37:56;16.60;99.90
11944;DHT22;6031;50.220;10.122;2022-10-31T09:40:29;17.10;99.90
11944;DHT22;6031;50.220;10.122;2022-10-31T09:43:35;18.00;99.90
11944;DHT22;6031;50.220;10.122;2022-10-31T09:48:56;19.00;99.90
11944;DHT22;6031;50.220;10.122;2022-10-31T09:51:32;19.20;99.90
11944;DHT22;6031;50.220;10.122;2022-10-31T09:56:43;19.20;99.90
11944;DHT22;6031;50.220;10.122;2022-10-31T09:59:24;19.50;99.90
11944;DHT22;6031;50.220;10.122;2022-10-31T10:01:55;20.00;99.90
11944;DHT22;6031;50.220;10.122;2022-10-31T10:04:44;20.30;99.90
11944;DHT22;6031;50.220;10.122;2022-10-31T10:07:33;21.20;99.90
11944;DHT22;6031;50.220;10.122;2022-10-31T10:10:05;21.50;99.90
11944;DHT22;6031;50.220;10.122;2022-10-31T10:12:49;21.20;99.90
11944;DHT22;6031;50.220;10.122;2022-10-31T10:18:30;19.70;99.90
11944;DHT22;6031;50.220;10.122;2022-10-31T10:24:12;20.00;99.90
11944;DHT22;6031;50.220;10.122;2022-10-31T10:29:42;19.10;99.90
11944;DHT22;6031;50.220;10.122;2022-10-31T10:32:17;18.50;99.90
11944;DHT22;6031;50.220;10.122;2022-10-31T10:34:50;17.50;99.90
11944;DHT22;6031;50.220;10.122;2022-10-31T10:37:34;16.90;99.90
11944;DHT22;6031;50.220;10.122;2022-10-31T10:40:16;16.70;99.90
11944;DHT22;6031;50.220;10.122;2022-10-31T10:42:48;16.70;99.90
11944;DHT22;6031;50.220;10.122;2022-10-31T10:45:35;16.70;99.90
11944;DHT22;6031;50.220;10.122;2022-10-31T10:48:35;17.30;99.90
11944;DHT22;6031;50.220;10.122;2022-10-31T10:51:03;17.90;99.90
11944;DHT22;6031;50.220;10.122;2022-10-31T10:56:46;18.30;99.90
11944;DHT22;6031;50.220;10.122;2022-10-31T10:59:16;18.50;99.90
11944;DHT22;6031;50.220;10.122;2022-10-31T11:01:43;18.80;99.90
11944;DHT22;6031;50.220;10.122;2022-10-31T11:04:39;19.00;99.90
11944;DHT22;6031;50.220;10.122;2022-10-31T11:07:08;19.10;99.90
11944;DHT22;6031;50.220;10.122;2022-10-31T11:09:35;19.10;99.90
11944;DHT22;6031;50.220;10.122;2022-10-31T11:12:20;19.30;99.90
11944;DHT22;6031;50.220;10.122;2022-10-31T11:14:55;19.20;99.90
11944;DHT22;6031;50.220;10.122;2022-10-31T11:17:32;19.30;99.90
11944;DHT22;6031;50.220;10.122;2022-10-31T11:20:02;19.70;99.90
11944;DHT22;6031;50.220;10.122;2022-10-31T11:22:28;19.90;99.90
11944;DHT22;6031;50.220;10.122;2022-10-31T11:24:53;20.40;99.90
11944;DHT22;6031;50.220;10.122;2022-10-31T11:27:23;20.70;99.90
11944;DHT22;6031;50.220;10.122;2022-10-31T11:29:50;20.80;99.90
11944;DHT22;6031;50.220;10.122;2022-10-31T11:32:25;21.00;99.90
11944;DHT22;6031;50.220;10.122;2022-10-31T11:34:54;21.10;99.90
11944;DHT22;6031;50.220;10.122;2022-10-31T11:37:27;21.20;99.90
11944;DHT22;6031;50.220;10.122;2022-10-31T11:39:55;21.60;99.90
11944;DHT22;6031;50.220;10.122;2022-10-31T11:42:23;21.80;99.90
11944;DHT22;6031;50.220;10.122;2022-10-31T11:44:49;22.00;99.90
11944;DHT22;6031;50.220;10.122;2022-10-31T11:47:17;22.40;99.90
11944;DHT22;6031;50.220;10.122;2022-10-31T11:49:48;22.60;99.90
11944;DHT22;6031;50.220;10.122;2022-10-31T11:52:28;22.50;99.90
11944;DHT22;6031;50.220;10.122;2022-10-31T11:55:01;22.40;99.90
11944;DHT22;6031;50.220;10.122;2022-10-31T11:57:47;22.50;99.90
11944;DHT22;6031;50.220;10.122;2022-10-31T12:00:28;22.00;99.90
11944;DHT22;6031;50.220;10.122;2022-10-31T12:05:55;22.00;99.90
11944;DHT22;6031;50.220;10.122;2022-10-31T12:08:33;21.80;99.90
11944;DHT22;6031;50.220;10.122;2022-10-31T12:11:15;21.70;99.90
11944;DHT22;6031;50.220;10.122;2022-10-31T12:16:34;21.10;99.90
11944;DHT22;6031;50.220;10.122;2022-10-31T12:19:06;20.90;99.90
11944;DHT22;6031;50.220;10.122;2022-10-31T12:27:08;19.80;99.90
11944;DHT22;6031;50.220;10.122;2022-10-31T12:32:32;19.50;99.90
11944;DHT22;6031;50.220;10.122;2022-10-31T12:35:08;19.40;99.90
11944;DHT22;6031;50.220;10.122;2022-10-31T12:38:21;19.40;99.90
11944;DHT22;6031;50.220;10.122;2022-10-31T12:43:39;19.00;99.90
11944;DHT22;6031;50.220;10.122;2022-10-31T12:46:25;18.70;99.90
11944;DHT22;6031;50.220;10.122;2022-10-31T12:49:16;18.60;99.90
11944;DHT22;6031;50.220;10.122;2022-10-31T12:59:57;18.20;99.90
11944;DHT22;6031;50.220;10.122;2022-10-31T13:03:09;18.10;99.90
11944;DHT22;6031;50.220;10.122;2022-10-31T13:05:34;18.10;99.90
11944;DHT22;6031;50.220;10.122;2022-10-31T13:08:16;18.00;99.90
11944;DHT22;6031;50.220;10.122;2022-10-31T13:13:43;18.00;99.90
11944;DHT22;6031;50.220;10.122;2022-10-31T13:16:18;18.00;99.90
11944;DHT22;6031;50.220;10.122;2022-10-31T13:18:57;17.90;99.90
11944;DHT22;6031;50.220;10.122;2022-10-31T13:21:36;18.00;99.90
11944;DHT22;6031;50.220;10.122;2022-10-31T13:24:05;17.90;99.90
11944;DHT22;6031;50.220;10.122;2022-10-31T13:26:38;17.90;99.90
11944;DHT22;6031;50.220;10.122;2022-10-31T13:29:30;17.90;99.90
11944;DHT22;6031;50.220;10.122;2022-10-31T13:31:57;18.00;99.90
11944;DHT22;6031;50.220;10.122;2022-10-31T13:34:28;17.90;99.90
11944;DHT22;6031;50.220;10.122;2022-10-31T13:37:06;17.90;99.90
11944;DHT22;6031;50.220;10.122;2022-10-31T13:45:52;17.30;99.90
11944;DHT22;6031;50.220;10.122;2022-10-31T13:48:36;17.10;99.90
11944;DHT22;6031;50.220;10.122;2022-10-31T13:51:06;17.10;99.90
11944;DHT22;6031;50.220;10.122;2022-10-31T13:53:40;17.00;99.90
11944;DHT22;6031;50.220;10.122;2022-10-31T13:56:28;17.00;99.90
11944;DHT22;6031;50.220;10.122;2022-10-31T14:01:34;17.10;99.90
11944;DHT22;6031;50.220;10.122;2022-10-31T14:04:18;17.10;99.90
11944;DHT22;6031;50.220;10.122;2022-10-31T14:07:06;17.00;99.90
11944;DHT22;6031;50.220;10.122;2022-10-31T14:09:36;17.10;99.90
11944;DHT22;6031;50.220;10.122;2022-10-31T14:12:23;17.00;99.90
11944;DHT22;6031;50.220;10.122;2022-10-31T14:14:58;17.00;99.90
11944;DHT22;6031;50.220;10.122;2022-10-31T14:17:28;17.00;99.90
11944;DHT22;6031;50.220;10.122;2022-10-31T14:20:26;16.90;99.90
11944;DHT22;6031;50.220;10.122;2022-10-31T14:22:56;16.80;99.90
11944;DHT22;6031;50.220;10.122;2022-10-31T14:25:29;16.80;99.90
11944;DHT22;6031;50.220;10.122;2022-10-31T14:27:55;16.80;99.90
11944;DHT22;6031;50.220;10.122;2022-10-31T14:30:24;16.80;99.90
11944;DHT22;6031;50.220;10.122;2022-10-31T14:32:52;16.70;99.90
11944;DHT22;6031;50.220;10.122;2022-10-31T14:35:20;16.70;99.90
11944;DHT22;6031;50.220;10.122;2022-10-31T14:43:14;16.70;99.90
11944;DHT22;6031;50.220;10.122;2022-10-31T14:45:53;16.60;99.90
11944;DHT22;6031;50.220;10.122;2022-10-31T14:51:33;16.60;99.90
11944;DHT22;6031;50.220;10.122;2022-10-31T14:54:00;16.60;99.90
11944;DHT22;6031;50.220;10.122;2022-10-31T14:56:29;16.50;99.90
11944;DHT22;6031;50.220;10.122;2022-10-31T14:58:57;16.40;99.90
11944;DHT22;6031;50.220;10.122;2022-10-31T15:04:17;16.40;99.90
11944;DHT22;6031;50.220;10.122;2022-10-31T15:06:46;16.40;99.90
11944;DHT22;6031;50.220;10.122;2022-10-31T15:09:30;16.20;99.90
11944;DHT22;6031;50.220;10.122;2022-10-31T15:12:01;16.20;99.90
11944;DHT22;6031;50.220;10.122;2022-10-31T15:14:40;16.10;99.90
11944;DHT22;6031;50.220;10.122;2022-10-31T15:17:05;15.90;99.90
11944;DHT22;6031;50.220;10.122;2022-10-31T15:19:32;15.80;99.90
11944;DHT22;6031;50.220;10.122;2022-10-31T15:21:58;15.70;99.90
11944;DHT22;6031;50.220;10.122;2022-10-31T15:24:35;15.70;99.90
11944;DHT22;6031;50.220;10.122;2022-10-31T15:27:02;15.60;99.90
11944;DHT22;6031;50.220;10.122;2022-10-31T15:29:27;15.60;99.90
11944;DHT22;6031;50.220;10.122;2022-10-31T15:31:55;15.50;99.90
11944;DHT22;6031;50.220;10.122;2022-10-31T15:34:40;15.40;99.90
11944;DHT22;6031;50.220;10.122;2022-10-31T15:37:14;15.30;99.90
11944;DHT22;6031;50.220;10.122;2022-10-31T15:39:41;15.30;99.90
11944;DHT22;6031;50.220;10.122;2022-10-31T15:42:32;15.20;99.90
11944;DHT22;6031;50.220;10.122;2022-10-31T15:45:05;15.10;99.90
11944;DHT22;6031;50.220;10.122;2022-10-31T15:48:12;15.00;99.90
11944;DHT22;6031;50.220;10.122;2022-10-31T15:50:40;14.80;99.90
11944;DHT22;6031;50.220;10.122;2022-10-31T15:53:16;14.80;99.90
11944;DHT22;6031;50.220;10.122;2022-10-31T15:55:52;14.80;99.90
11944;DHT22;6031;50.220;10.122;2022-10-31T15:58:18;14.80;99.90
11944;DHT22;6031;50.220;10.122;2022-10-31T16:00:44;14.80;99.90
11944;DHT22;6031;50.220;10.122;2022-10-31T16:05:53;14.60;99.90
11944;DHT22;6031;50.220;10.122;2022-10-31T16:13:40;14.30;99.90
11944;DHT22;6031;50.220;10.122;2022-10-31T16:16:14;14.20;99.90
11944;DHT22;6031;50.220;10.122;2022-10-31T16:18:41;14.10;99.90
11944;DHT22;6031;50.220;10.122;2022-10-31T16:21:08;14.10;99.90
11944;DHT22;6031;50.220;10.122;2022-10-31T16:23:34;14.00;99.90
11944;DHT22;6031;50.220;10.122;2022-10-31T16:26:06;14.00;99.90
11944;DHT22;6031;50.220;10.122;2022-10-31T16:28:32;13.70;99.90
11944;DHT22;6031;50.220;10.122;2022-10-31T16:30:59;13.60;99.90
11944;DHT22;6031;50.220;10.122;2022-10-31T16:33:34;13.60;99.90
11944;DHT22;6031;50.220;10.122;2022-10-31T16:38:55;13.40;99.90
11944;DHT22;6031;50.220;10.122;2022-10-31T16:41:21;13.30;99.90
11944;DHT22;6031;50.220;10.122;2022-10-31T16:43:48;13.20;99.90
11944;DHT22;6031;50.220;10.122;2022-10-31T16:46:15;13.20;99.90
11944;DHT22;6031;50.220;10.122;2022-10-31T16:48:42;13.20;99.90
11944;DHT22;6031;50.220;10.122;2022-10-31T16:51:08;13.10;99.90
11944;DHT22;6031;50.220;10.122;2022-10-31T16:53:33;13.00;99.90
11944;DHT22;6031;50.220;10.122;2022-10-31T16:55:59;12.90;99.90
11944;DHT22;6031;50.220;10.122;2022-10-31T16:58:29;12.80;99.90
11944;DHT22;6031;50.220;10.122;2022-10-31T17:00:55;12.80;99.90
11944;DHT22;6031;50.220;10.122;2022-10-31T17:03:21;12.80;99.90
11944;DHT22;6031;50.220;10.122;2022-10-31T17:05:47;12.70;99.90
11944;DHT22;6031;50.220;10.122;2022-10-31T17:08:13;12.60;99.90
11944;DHT22;6031;50.220;10.122;2022-10-31T17:10:39;12.70;99.90
11944;DHT22;6031;50.220;10.122;2022-10-31T17:13:07;12.50;99.90
11944;DHT22;6031;50.220;10.122;2022-10-31T17:15:41;12.50;99.90
11944;DHT22;6031;50.220;10.122;2022-10-31T17:18:12;12.50;99.90
11944;DHT22;6031;50.220;10.122;2022-10-31T17:20:38;12.50;99.90
11944;DHT22;6031;50.220;10.122;2022-10-31T17:23:04;12.40;99.90
11944;DHT22;6031;50.220;10.122;2022-10-31T17:25:30;12.30;99.90
11944;DHT22;6031;50.220;10.122;2022-10-31T17:27:56;12.30;99.90
11944;DHT22;6031;50.220;10.122;2022-10-31T17:30:23;12.30;99.90
11944;DHT22;6031;50.220;10.122;2022-10-31T17:32:49;12.30;99.90
11944;DHT22;6031;50.220;10.122;2022-10-31T17:35:15;12.30;99.90
11944;DHT22;6031;50.220;10.122;2022-10-31T17:37:42;12.20;99.90